Time;durP1;ratioP1;P1;durP2;ratioP2;P2;SDS_P1;SDS_P2;PMS_P1;PMS_P2;Temp;Humidity;BMP_temperature;BMP_pressure;BME280_temperature;BME280_humidity;BME280_pressure;Samples;Min_cycle;Max_cycle;Signal;HPM_P1;HPM_P2
2023/03/04 00:02:00;;;;;;;16.55;3.95;;;4.30;99.90;;;2.70;100.00;101378.69;4973939;28;20483;-79
2023/03/04 00:04:25;;;;;;;22.92;4.15;;;4.40;99.90;;;2.76;100.00;101388.00;4991183;28;20050;-77
2023/03/04 00:06:51;;;;;;;20.08;3.80;;;4.40;99.90;;;2.75;100.00;101380.91;4984540;28;20043;-78
2023/03/04 00:09:17;;;;;;;15.68;3.85;;;4.40;99.90;;;2.73;100.00;101380.22;4982352;28;20057;-77
2023/03/04 00:11:43;;;;;;;21.38;4.32;;;4.40;99.90;;;2.79;100.00;101381.47;4983282;28;20549;-78
2023/03/04 00:14:09;;;;;;;23.33;5.13;;;4.50;99.90;;;2.90;100.00;101389.38;4979694;28;20038;-78
2023/03/04 00:16:35;;;;;;;19.23;3.85;;;4.50;99.90;;;2.86;100.00;101382.59;4986237;28;20067;-79
2023/03/04 00:19:00;;;;;;;23.88;4.40;;;4.60;99.90;;;2.90;100.00;101393.94;4987980;28;20038;-79
2023/03/04 00:21:26;;;;;;;19.70;4.07;;;4.50;99.90;;;2.83;100.00;101378.34;4985973;28;20367;-78
2023/03/04 00:23:52;;;;;;;17.17;4.25;;;4.50;99.90;;;2.79;100.00;101370.69;4991328;28;20044;-78
2023/03/04 00:26:18;;;;;;;22.33;4.82;;;4.50;99.90;;;2.88;100.00;101376.06;4980362;28;20068;-78
2023/03/04 00:28:45;;;;;;;22.17;4.43;;;4.50;99.90;;;2.89;100.00;101374.19;4987344;28;20030;-79
2023/03/04 00:31:11;;;;;;;24.02;4.65;;;4.50;99.90;;;2.86;100.00;101369.97;4986082;28;20053;-79
2023/03/04 00:33:37;;;;;;;27.08;4.47;;;4.50;99.90;;;2.88;100.00;101383.28;4987071;28;20544;-79
2023/03/04 00:36:04;;;;;;;20.50;4.28;;;4.50;99.90;;;2.90;100.00;101381.28;4978433;28;20030;-79
2023/03/04 00:38:30;;;;;;;21.08;4.07;;;4.50;99.90;;;2.90;100.00;101373.19;5003724;28;20038;-79
2023/03/04 00:40:56;;;;;;;18.15;4.10;;;4.60;99.90;;;2.90;100.00;101373.19;4974793;28;20046;-79
2023/03/04 00:43:22;;;;;;;19.38;4.10;;;4.50;99.90;;;2.84;100.00;101374.66;4980833;28;20472;-79
2023/03/04 00:45:47;;;;;;;19.35;4.00;;;4.50;99.90;;;2.90;100.00;101365.13;4988450;28;20026;-79
2023/03/04 00:48:15;;;;;;;19.60;4.93;;;4.50;99.90;;;2.82;100.00;101354.22;4975943;28;20045;-79
2023/03/04 00:50:41;;;;;;;14.63;4.03;;;4.50;99.90;;;2.89;100.00;101358.03;4984371;28;20069;-81
2023/03/04 00:53:08;;;;;;;20.83;3.60;;;4.50;99.90;;;2.94;100.00;101363.84;4982194;28;20296;-79
2023/03/04 00:55:35;;;;;;;26.75;4.85;;;4.60;99.90;;;2.95;100.00;101362.84;4982271;28;20031;-80
2023/03/04 00:58:01;;;;;;;15.13;4.38;;;4.60;99.90;;;3.00;100.00;101362.38;4990224;28;20633;-79
2023/03/04 01:00:28;;;;;;;19.23;5.22;;;4.60;99.90;;;3.00;100.00;101362.38;4985148;28;20085;-79
2023/03/04 01:02:53;;;;;;;13.88;4.45;;;4.60;99.90;;;2.98;100.00;101354.44;4982804;28;20031;-79
2023/03/04 01:05:19;;;;;;;17.15;3.78;;;4.60;99.90;;;3.02;100.00;101363.94;4992937;28;20026;-79
2023/03/04 01:07:45;;;;;;;22.15;4.35;;;4.60;99.90;;;2.95;100.00;101349.38;4985804;28;20136;-79
2023/03/04 01:10:14;;;;;;;18.60;4.20;;;4.60;99.90;;;2.96;100.00;101353.75;4988091;28;20035;-79
2023/03/04 01:12:41;;;;;;;19.05;4.55;;;4.60;99.90;;;2.97;100.00;101352.75;4986964;28;20389;-79
2023/03/04 01:15:12;;;;;;;19.58;4.13;;;4.60;99.90;;;2.95;100.00;101354.75;4991315;28;20034;-80
2023/03/04 01:17:39;;;;;;;21.42;3.72;;;4.60;99.90;;;2.92;100.00;101357.75;4985635;28;20194;-80
2023/03/04 01:20:07;;;;;;;23.80;4.05;;;4.60;99.90;;;2.89;100.00;101336.47;4990524;28;20045;-79
2023/03/04 01:22:34;;;;;;;19.73;3.72;;;4.60;99.90;;;2.91;100.00;101339.03;4985772;28;20101;-79
2023/03/04 01:25:00;;;;;;;13.88;3.92;;;4.60;99.90;;;2.93;100.00;101348.66;4977737;28;20403;-79
2023/03/04 01:27:26;;;;;;;15.48;3.42;;;4.60;99.90;;;2.94;100.00;101338.72;4991985;28;20057;-79
2023/03/04 01:29:52;;;;;;;18.92;3.58;;;4.60;99.90;;;2.93;100.00;101334.31;4983224;28;20046;-79
2023/03/04 01:32:17;;;;;;;21.98;3.97;;;4.60;99.90;;;2.95;100.00;101335.88;4990346;28;20038;-79
2023/03/04 01:34:43;;;;;;;16.58;4.35;;;4.60;99.90;;;2.93;100.00;101324.41;4984043;28;20441;-79
2023/03/04 01:37:12;;;;;;;15.30;3.67;;;4.60;99.90;;;3.01;100.00;101321.81;4984798;28;20042;-78
2023/03/04 01:39:38;;;;;;;19.73;3.65;;;4.60;99.90;;;2.97;100.00;101330.31;4981062;28;20038;-79
2023/03/04 01:42:05;;;;;;;16.48;3.00;;;4.60;99.90;;;2.97;100.00;101325.81;4987823;28;20041;-79
2023/03/04 01:44:31;;;;;;;19.13;3.70;;;4.60;99.90;;;2.95;100.00;101322.41;4987893;28;20038;-79
2023/03/04 01:46:57;;;;;;;17.88;3.65;;;4.60;99.90;;;2.95;100.00;101322.41;4989550;28;20045;-79
2023/03/04 01:49:24;;;;;;;16.48;4.28;;;4.60;99.90;;;2.97;100.00;101317.72;5006390;28;20046;-79
2023/03/04 01:51:53;;;;;;;15.77;3.15;;;4.60;99.90;;;2.93;100.00;101302.84;4984547;28;20394;-79
2023/03/04 01:54:21;;;;;;;17.92;3.60;;;4.60;99.90;;;2.96;100.00;101312.47;4988249;28;20026;-80
2023/03/04 01:56:50;;;;;;;16.85;3.60;;;4.60;99.90;;;2.94;100.00;101298.28;4981448;28;20038;-80
2023/03/04 01:59:29;;;;;;;20.00;3.40;;;4.60;99.90;;;2.95;100.00;101290.06;4990314;28;20026;-79
2023/03/04 02:01:59;;;;;;;15.25;3.45;;;4.60;99.90;;;2.94;100.00;101293.75;4979539;28;20482;-79
2023/03/04 02:04:30;;;;;;;18.95;3.65;;;4.60;99.90;;;3.00;100.00;101286.88;4980214;28;20457;-78
2023/03/04 02:06:58;;;;;;;13.65;3.13;;;4.60;99.90;;;2.98;100.00;101270.88;4991056;28;20035;-79
2023/03/04 02:09:27;;;;;;;15.02;2.95;;;4.70;99.90;;;3.05;100.00;101273.84;4977133;28;20118;-78
2023/03/04 02:11:54;;;;;;;15.65;3.50;;;4.70;99.90;;;3.04;100.00;101272.09;4989219;28;20030;-79
2023/03/04 02:14:21;;;;;;;17.95;3.33;;;4.70;99.90;;;3.04;100.00;101277.50;4986824;28;20035;-79
2023/03/04 02:16:48;;;;;;;12.88;3.25;;;4.70;99.90;;;3.02;100.00;101271.41;4988567;28;20038;-79
2023/03/04 02:19:38;;;;;;;17.52;3.03;;;4.70;99.90;;;3.07;100.00;101270.97;4983507;28;20039;-79
2023/03/04 02:22:04;;;;;;;14.55;3.55;;;4.70;99.90;;;3.11;100.00;101262.44;4981787;28;20057;-79
2023/03/04 02:24:42;;;;;;;20.83;2.90;;;4.70;99.90;;;3.15;100.00;101265.66;4975593;28;22093;-79
2023/03/04 02:27:08;;;;;;;14.45;3.35;;;4.80;99.90;;;3.13;100.00;101264.94;5003531;28;20038;-79
2023/03/04 02:29:34;;;;;;;17.63;2.80;;;4.80;99.90;;;3.12;100.00;101256.03;4984110;28;20133;-79
2023/03/04 02:32:01;;;;;;;17.60;2.95;;;4.80;99.90;;;3.10;100.00;101249.09;4975043;28;20061;-79
2023/03/04 02:34:34;;;;;;;16.25;2.70;;;4.80;99.90;;;3.17;100.00;101259.13;4982789;28;20443;-79
2023/03/04 02:37:01;;;;;;;11.48;2.50;;;4.80;99.90;;;3.17;100.00;101252.84;4980887;28;20030;-79
2023/03/04 02:39:39;;;;;;;18.67;3.25;;;4.80;99.90;;;3.13;100.00;101256.88;5005323;28;20552;-79
2023/03/04 02:42:04;;;;;;;16.17;3.05;;;4.80;99.90;;;3.14;100.00;101248.63;4977669;28;20050;-79
2023/03/04 02:44:40;;;;;;;19.92;3.42;;;4.80;99.90;;;3.18;100.00;101251.84;4987739;28;20089;-77
2023/03/04 02:47:10;;;;;;;8.63;2.20;;;4.80;99.90;;;3.21;100.00;101250.72;4990057;28;20038;-78
2023/03/04 02:49:39;;;;;;;12.77;2.67;;;4.80;99.90;;;3.21;100.00;101248.88;4982563;28;20062;-79
2023/03/04 02:52:19;;;;;;;17.73;3.00;;;4.80;99.90;;;3.26;100.00;101254.66;5001585;28;20099;-79
2023/03/04 02:54:45;;;;;;;15.45;3.08;;;4.90;99.90;;;3.26;100.00;101253.78;4988301;28;20049;-77
2023/03/04 02:57:14;;;;;;;19.67;2.95;;;4.90;99.90;;;3.19;100.00;101245.50;4990003;28;20030;-77
2023/03/04 02:59:42;;;;;;;17.05;2.55;;;4.90;99.90;;;3.28;100.00;101254.47;4989012;28;20626;-77
2023/03/04 03:02:12;;;;;;;17.25;2.75;;;4.90;99.90;;;3.28;100.00;101257.19;4991598;28;20023;-79
2023/03/04 03:04:40;;;;;;;16.70;2.63;;;4.90;99.90;;;3.27;100.00;101258.19;5006368;28;20074;-78
2023/03/04 03:07:08;;;;;;;13.30;3.35;;;4.90;99.90;;;3.22;100.00;101247.88;4999920;28;20069;-79
2023/03/04 03:09:34;;;;;;;11.55;2.60;;;4.90;99.90;;;3.34;100.00;101255.72;4990035;28;20027;-78
2023/03/04 03:12:00;;;;;;;10.75;2.35;;;5.00;99.90;;;3.33;100.00;101249.50;4979114;28;20038;-79
2023/03/04 03:14:27;;;;;;;10.88;2.53;;;5.00;99.90;;;3.37;100.00;101255.41;5001558;28;20042;-78
2023/03/04 03:16:53;;;;;;;11.23;2.67;;;5.00;99.90;;;3.37;100.00;101255.41;4984425;28;20508;-78
2023/03/04 03:19:19;;;;;;;12.90;2.50;;;5.00;99.90;;;3.31;100.00;101244.25;4984083;28;20106;-78
2023/03/04 03:21:45;;;;;;;9.55;2.25;;;5.00;99.90;;;3.33;100.00;101235.16;4992301;28;20437;-78
2023/03/04 03:24:10;;;;;;;12.85;2.08;;;5.00;99.90;;;3.31;100.00;101240.69;4968380;28;20034;-79
2023/03/04 03:26:38;;;;;;;11.85;2.42;;;4.90;99.90;;;3.32;100.00;101242.41;4975258;28;20977;-79
2023/03/04 03:29:04;;;;;;;15.15;2.20;;;5.00;99.90;;;3.29;100.00;101227.38;4976230;28;20047;-80
2023/03/04 03:31:30;;;;;;;12.48;2.17;;;5.00;99.90;;;3.38;100.00;101240.91;4981241;28;20366;-79
2023/03/04 03:33:55;;;;;;;11.73;2.10;;;5.00;99.90;;;3.35;100.00;101236.69;4990361;28;20468;-80
2023/03/04 03:36:21;;;;;;;10.45;2.10;;;5.00;99.90;;;3.40;100.00;101236.22;4983291;28;20031;-79
2023/03/04 03:38:47;;;;;;;11.07;1.98;;;5.00;99.90;;;3.38;100.00;101232.84;4983971;28;20035;-79
2023/03/04 03:41:12;;;;;;;13.35;2.05;;;5.00;99.90;;;3.37;100.00;101236.53;4981455;28;20042;-80
2023/03/04 03:43:38;;;;;;;8.13;1.77;;;5.00;99.90;;;3.31;100.00;101214.56;4988297;28;20042;-79
2023/03/04 03:46:04;;;;;;;12.27;2.38;;;5.00;99.90;;;3.38;100.00;101233.69;4980634;28;20043;-80
2023/03/04 03:48:30;;;;;;;19.15;2.55;;;5.00;99.90;;;3.42;100.00;101232.38;4988896;28;20046;-78
2023/03/04 03:50:55;;;;;;;13.43;2.00;;;5.00;99.90;;;3.41;100.00;101227.13;5006108;28;20046;-78
2023/03/04 03:53:21;;;;;;;9.18;1.67;;;5.10;99.90;;;3.42;100.00;101234.22;4987216;28;20049;-81
2023/03/04 03:55:47;;;;;;;6.35;1.63;;;5.10;99.90;;;3.40;100.00;101234.38;4984038;28;20031;-80
2023/03/04 03:58:13;;;;;;;14.32;2.47;;;5.00;99.90;;;3.38;100.00;101227.44;4991312;28;20490;-79
2023/03/04 04:00:38;;;;;;;7.90;2.08;;;5.10;99.90;;;3.39;100.00;101234.53;4988975;28;20891;-79
2023/03/04 04:03:05;;;;;;;11.60;2.17;;;5.00;99.90;;;3.29;100.00;101224.69;5004322;28;20042;-79
2023/03/04 04:05:30;;;;;;;11.68;2.10;;;5.00;99.90;;;3.40;100.00;101226.28;4988662;28;20038;-79
2023/03/04 04:07:56;;;;;;;10.73;2.15;;;5.00;99.90;;;3.36;100.00;101226.75;4978886;28;20426;-79
2023/03/04 04:10:22;;;;;;;13.63;1.80;;;5.00;99.90;;;3.31;100.00;101224.50;4981410;28;20031;-77
2023/03/04 04:12:48;;;;;;;10.60;1.77;;;5.00;99.90;;;3.28;100.00;101227.50;4988452;28;20038;-77
2023/03/04 04:15:15;;;;;;;10.15;1.65;;;4.90;99.90;;;3.24;100.00;101218.91;4980236;28;20490;-79
2023/03/04 04:17:40;;;;;;;9.75;1.75;;;4.90;99.90;;;3.31;100.00;101235.28;4979575;28;20045;-79
2023/03/04 04:20:08;;;;;;;13.05;2.30;;;4.90;99.90;;;3.26;100.00;101224.13;4985974;28;20121;-78
2023/03/04 04:22:34;;;;;;;8.48;2.10;;;4.90;99.90;;;3.27;100.00;101218.59;5004150;28;20081;-78
2023/03/04 04:25:00;;;;;;;13.05;2.35;;;4.90;99.90;;;3.18;100.00;101214.09;4988013;28;20046;-78
2023/03/04 04:27:25;;;;;;;9.57;2.05;;;4.90;99.90;;;3.14;100.00;101216.28;4978004;28;20421;-78
2023/03/04 04:29:51;;;;;;;9.90;1.88;;;4.80;99.90;;;3.16;100.00;101210.72;4986450;28;20077;-78
2023/03/04 04:32:17;;;;;;;9.00;1.80;;;4.80;99.90;;;3.16;100.00;101210.72;4989092;28;20038;-79
2023/03/04 04:34:42;;;;;;;12.77;2.72;;;4.80;99.90;;;3.16;100.00;101218.81;4988744;28;20093;-79
2023/03/04 04:37:08;;;;;;;9.48;2.17;;;4.80;99.90;;;3.12;100.00;101217.41;5005304;28;20093;-78
2023/03/04 04:39:34;;;;;;;8.25;2.22;;;4.80;99.90;;;3.13;100.00;101224.50;4986572;28;20070;-77
2023/03/04 04:42:00;;;;;;;11.15;1.95;;;4.70;99.90;;;3.07;100.00;101208.94;5001637;28;20042;-77
2023/03/04 04:44:25;;;;;;;10.85;2.55;;;4.80;99.90;;;3.10;100.00;101212.19;4983557;28;20042;-78
2023/03/04 04:46:51;;;;;;;8.75;1.95;;;4.70;99.90;;;3.02;100.00;101199.47;4982368;28;20096;-77
2023/03/04 04:49:17;;;;;;;12.43;2.03;;;4.70;99.90;;;2.97;100.00;101206.31;4986600;28;20109;-77
2023/03/04 04:51:42;;;;;;;10.43;1.80;;;4.60;99.90;;;2.92;100.00;101206.81;4986588;28;20042;-78
2023/03/04 04:54:12;;;;;;;6.85;1.90;;;4.60;99.90;;;2.81;100.00;101198.91;5003777;28;20168;-77
2023/03/04 04:56:38;;;;;;;10.43;2.30;;;4.50;99.90;;;2.79;100.00;101200.91;4999102;28;20042;-77
2023/03/04 04:59:06;;;;;;;11.02;2.28;;;4.50;99.90;;;2.75;100.00;101196.84;4983952;28;20035;-77
2023/03/04 05:01:31;;;;;;;;;;;4.40;99.90;;;2.68;100.00;101186.69;4974492;28;20074;-77
2023/03/04 05:03:57;;;;;;;13.40;2.33;;;4.40;99.90;;;2.66;100.00;101183.28;4978024;28;19984;-76
2023/03/04 05:06:24;;;;;;;15.27;2.28;;;4.30;99.90;;;2.65;100.00;101192.38;4978104;28;20093;-77
2023/03/04 05:08:50;;;;;;;12.07;2.08;;;4.30;99.90;;;2.64;100.00;101187.94;4976168;28;20037;-77
2023/03/04 05:11:18;;;;;;;10.73;2.13;;;4.30;99.90;;;2.60;100.00;101186.56;4988891;28;20045;-77
2023/03/04 05:13:44;;;;;;;9.07;2.20;;;4.20;99.90;;;2.61;100.00;101179.34;4977002;28;20117;-77
2023/03/04 05:16:10;;;;;;;13.73;2.47;;;4.20;99.90;;;2.52;100.00;101175.69;4984162;28;20045;-76
2023/03/04 05:18:36;;;;;;;7.20;1.60;;;4.20;99.90;;;2.52;100.00;101181.09;5006063;28;20057;-77
2023/03/04 05:21:03;;;;;;;12.82;2.00;;;4.20;99.90;;;2.52;100.00;101181.09;4975397;28;20039;-77
2023/03/04 05:23:33;;;;;;;15.63;2.05;;;4.20;99.90;;;2.51;100.00;101179.41;5004705;28;20046;-77
2023/03/04 05:26:00;;;;;;;15.30;2.90;;;4.10;99.90;;;2.53;100.00;101180.97;5005361;28;20073;-76
2023/03/04 05:28:26;;;;;;;12.77;2.22;;;4.10;99.90;;;2.51;100.00;101180.22;4999692;28;20556;-77
2023/03/04 05:30:52;;;;;;;11.95;2.35;;;4.10;99.90;;;2.52;100.00;101178.41;4987168;28;20034;-77
2023/03/04 05:33:18;;;;;;;13.75;2.47;;;4.20;99.90;;;2.49;100.00;101176.84;4984373;28;20089;-78
2023/03/04 05:35:47;;;;;;;12.95;2.90;;;4.20;99.90;;;2.44;100.00;101173.75;4983599;28;20265;-77
2023/03/04 05:38:16;;;;;;;6.03;2.10;;;4.10;99.90;;;2.46;100.00;101179.00;4992858;28;20040;-78
2023/03/04 05:40:42;;;;;;;9.68;2.08;;;4.10;99.90;;;2.43;100.00;101167.53;4986161;28;20466;-77
2023/03/04 05:43:08;;;;;;;9.77;2.45;;;4.10;99.90;;;2.46;100.00;101181.69;4982437;28;20043;-78
2023/03/04 05:45:35;;;;;;;12.23;2.28;;;4.10;99.90;;;2.51;100.00;101179.41;4980108;28;20035;-76
2023/03/04 05:48:01;;;;;;;10.95;2.45;;;4.10;99.90;;;2.48;100.00;101177.84;4977419;28;20077;-77
2023/03/04 05:50:28;;;;;;;11.45;2.30;;;4.10;99.90;;;2.42;100.00;101171.22;5006019;28;20038;-77
2023/03/04 05:52:54;;;;;;;12.07;2.20;;;4.10;99.90;;;2.37;100.00;101176.19;4980972;28;20027;-77
2023/03/04 05:55:21;;;;;;;10.30;2.22;;;4.00;99.90;;;2.40;100.00;101173.22;4984692;28;20035;-77
2023/03/04 05:57:46;;;;;;;8.80;2.30;;;4.10;99.90;;;2.42;100.00;101175.75;4994030;28;20042;-77
2023/03/04 06:00:15;;;;;;;9.63;2.10;;;4.10;99.90;;;2.46;100.00;101173.63;4991427;28;20038;-76
2023/03/04 06:02:42;;;;;;;13.13;2.10;;;4.10;99.90;;;2.45;100.00;101167.38;4992441;28;20073;-76
2023/03/04 06:05:13;;;;;;;13.30;2.42;;;4.10;99.90;;;2.46;100.00;101171.75;4982015;28;20038;-78
2023/03/04 06:07:41;;;;;;;13.07;2.38;;;4.10;99.90;;;2.48;100.00;101175.16;4989462;28;20454;-76
2023/03/04 06:10:09;;;;;;;11.32;2.30;;;4.10;99.90;;;2.55;100.00;101181.66;4984655;28;20141;-77
2023/03/04 06:12:35;;;;;;;9.48;2.63;;;4.20;99.90;;;2.57;100.00;101179.66;4988703;28;20198;-78
2023/03/04 06:15:01;;;;;;;12.63;2.20;;;4.20;99.90;;;2.61;100.00;101187.44;4980683;28;20904;-77
2023/03/04 06:17:28;;;;;;;9.27;1.85;;;4.30;99.90;;;2.58;100.00;101175.97;4982280;28;20169;-79
2023/03/04 06:19:54;;;;;;;13.75;2.05;;;4.20;99.90;;;2.52;100.00;101170.31;4984187;28;20053;-78
2023/03/04 06:22:20;;;;;;;7.88;2.10;;;4.20;99.90;;;2.58;100.00;101183.19;4975635;28;20031;-79
2023/03/04 06:24:45;;;;;;;12.07;2.33;;;4.20;99.90;;;2.59;100.00;101174.97;5002781;28;20042;-79
2023/03/04 06:27:12;;;;;;;13.68;2.55;;;4.20;99.90;;;2.62;100.00;101184.56;5004872;28;20034;-77
2023/03/04 06:29:38;;;;;;;9.45;1.90;;;4.30;99.90;;;2.64;100.00;101176.34;4982923;28;20057;-77
2023/03/04 06:32:04;;;;;;;5.82;1.50;;;4.30;99.90;;;2.58;100.00;101175.09;4987178;28;20041;-77
2023/03/04 06:34:30;;;;;;;8.90;2.05;;;4.30;99.90;;;2.60;100.00;101181.19;4985186;28;20046;-77
2023/03/04 06:36:56;;;;;;;12.50;2.00;;;4.30;99.90;;;2.61;100.00;101195.50;4986356;28;20118;-78
2023/03/04 06:39:21;;;;;;;8.13;2.00;;;4.20;99.90;;;2.55;100.00;101176.25;5001652;28;20500;-77
2023/03/04 06:41:47;;;;;;;11.52;2.00;;;4.30;99.90;;;2.59;100.00;101168.69;4988573;28;20038;-76
2023/03/04 06:44:13;;;;;;;7.68;2.20;;;4.30;99.90;;;2.62;100.00;101181.03;4986710;28;20119;-77
2023/03/04 06:46:38;;;;;;;10.50;2.15;;;4.30;99.90;;;2.61;100.00;101177.47;4986220;28;20054;-78
2023/03/04 06:49:04;;;;;;;11.05;2.08;;;4.30;99.90;;;2.67;100.00;101182.28;4983796;28;20046;-78
2023/03/04 06:51:30;;;;;;;10.80;1.58;;;4.30;99.90;;;2.73;100.00;101187.06;4981884;28;20104;-78
2023/03/04 06:53:56;;;;;;;7.70;1.65;;;4.40;99.90;;;2.72;100.00;101185.38;4986775;28;20473;-79
2023/03/04 06:56:22;;;;;;;9.45;1.77;;;4.40;99.90;;;2.75;100.00;101175.28;4981331;28;20109;-78
2023/03/04 06:58:47;;;;;;;7.95;1.70;;;4.40;99.90;;;2.83;100.00;101178.06;4982697;28;20054;-78
2023/03/04 07:01:26;;;;;;;8.25;2.30;;;4.50;99.90;;;2.86;100.00;101173.22;4986292;28;20406;-78
2023/03/04 07:03:54;;;;;;;10.35;1.70;;;4.50;99.90;;;2.95;100.00;101186.75;4983086;28;20320;-78
2023/03/04 07:06:25;;;;;;;8.82;1.98;;;4.60;99.90;;;2.89;100.00;101193.59;4988188;28;20093;-79
2023/03/04 07:08:51;;;;;;;10.13;1.98;;;4.60;99.90;;;2.83;100.00;101178.06;4978950;28;20050;-79
2023/03/04 07:11:18;;;;;;;10.43;1.80;;;4.50;99.90;;;2.86;100.00;101180.44;4988903;28;20102;-79
2023/03/04 07:13:45;;;;;;;12.40;2.25;;;4.50;99.90;;;2.83;100.00;101178.06;4984412;28;20074;-78
2023/03/04 07:16:16;;;;;;;11.07;2.00;;;4.50;99.90;;;2.79;100.00;101174.84;4974780;28;20030;-79
2023/03/04 07:18:43;;;;;;;9.23;1.70;;;4.50;99.90;;;2.84;100.00;101177.06;4987874;28;20502;-78
2023/03/04 07:21:09;;;;;;;9.45;1.88;;;4.50;99.90;;;2.89;100.00;101193.59;4974300;28;20039;-79
2023/03/04 07:23:36;;;;;;;8.35;1.70;;;4.50;99.90;;;2.91;100.00;101185.38;4985616;28;20042;-79
2023/03/04 07:26:02;;;;;;;12.13;2.22;;;4.60;99.90;;;2.88;100.00;101179.31;5000505;28;20045;-80
2023/03/04 07:28:28;;;;;;;10.18;2.40;;;4.60;99.90;;;2.93;100.00;101189.63;4989468;28;20046;-79
2023/03/04 07:30:54;;;;;;;10.75;2.08;;;4.60;99.90;;;2.95;100.00;101184.06;4987017;28;20041;-80
2023/03/04 07:33:19;;;;;;;8.55;2.40;;;4.60;99.90;;;2.90;100.00;101189.06;4982993;28;20038;-80
2023/03/04 07:35:45;;;;;;;12.77;2.10;;;4.60;99.90;;;3.00;100.00;101185.31;4983617;28;20030;-83
2023/03/04 07:38:11;;;;;;;8.88;1.95;;;4.60;99.90;;;2.98;100.00;101186.44;4989275;28;20038;-80
2023/03/04 07:40:37;;;;;;;6.30;2.08;;;4.60;99.90;;;2.96;100.00;101183.06;4975223;28;20034;-83
2023/03/04 07:43:03;;;;;;;8.50;2.25;;;4.70;99.90;;;2.96;100.00;101183.06;4986812;28;20034;-80
2023/03/04 07:45:28;;;;;;;8.82;3.00;;;4.70;99.90;;;2.93;100.00;101177.97;4984619;28;20069;-82
2023/03/04 07:47:56;;;;;;;11.65;2.28;;;4.70;99.90;;;3.06;100.00;101181.16;4982889;28;20186;-78
2023/03/04 07:50:22;;;;;;;13.65;2.20;;;4.70;99.90;;;3.03;100.00;101176.06;4985209;28;20034;-79
2023/03/04 07:52:49;;;;;;;6.90;2.65;;;4.80;99.90;;;3.18;100.00;101170.97;4983710;28;20050;-82
2023/03/04 07:55:16;;;;;;;9.10;2.80;;;4.90;99.90;;;3.33;100.00;101190.16;4980421;28;20474;-81
2023/03/04 07:57:45;;;;;;;8.45;2.50;;;5.00;99.90;;;3.50;100.00;101187.56;4979281;28;20499;-78
2023/03/04 08:00:14;;;;;;;10.50;3.13;;;5.10;99.90;;;3.52;100.00;101194.53;4991026;28;20142;-77
2023/03/04 08:02:40;;;;;;;11.13;3.42;;;5.20;99.90;;;3.51;100.00;101178.47;4980772;28;20465;-78
2023/03/04 08:05:07;;;;;;;12.32;3.08;;;5.20;99.90;;;3.54;100.00;101186.25;5004029;28;20034;-76
2023/03/04 08:07:33;;;;;;;12.27;2.90;;;5.30;99.90;;;3.60;100.00;101191.03;4975023;28;20089;-75
2023/03/04 08:09:59;;;;;;;12.45;3.10;;;5.30;99.90;;;3.58;100.00;101184.94;4979218;28;20441;-76
2023/03/04 08:12:25;;;;;;;8.98;2.90;;;5.30;99.90;;;3.60;100.00;101201.84;4996653;28;20038;-78
2023/03/04 08:14:51;;;;;;;7.72;3.40;;;5.30;99.90;;;3.52;100.00;101191.81;4982038;28;20093;-79
2023/03/04 08:17:17;;;;;;;12.23;3.20;;;5.20;99.90;;;3.31;100.00;101181.34;4978714;28;20030;-79
2023/03/04 08:19:43;;;;;;;8.10;2.42;;;5.10;99.90;;;3.32;100.00;101180.38;4974661;28;20043;-78
2023/03/04 08:22:09;;;;;;;9.10;2.58;;;5.00;99.90;;;3.27;100.00;101179.97;4974255;28;20398;-78
2023/03/04 08:24:35;;;;;;;8.25;2.40;;;5.00;99.90;;;3.21;100.00;101170.69;4983620;28;20046;-80
2023/03/04 08:27:00;;;;;;;8.75;2.42;;;5.00;99.90;;;3.28;100.00;101177.13;4981941;28;20035;-79
2023/03/04 08:29:26;;;;;;;7.93;2.90;;;5.00;99.90;;;3.32;100.00;101172.28;4984605;28;20042;-76
2023/03/04 08:31:54;;;;;;;6.75;2.60;;;5.00;99.90;;;3.34;100.00;101175.66;4979742;28;20049;-78
2023/03/04 08:34:23;;;;;;;7.70;2.50;;;5.00;99.90;;;3.39;100.00;101177.88;4988312;28;20109;-79
2023/03/04 08:36:49;;;;;;;7.63;2.33;;;5.00;99.90;;;3.21;100.00;101159.88;4989399;28;20511;-80
2023/03/04 08:39:17;;;;;;;9.02;2.58;;;4.90;99.90;;;3.21;100.00;101169.81;4981583;28;20074;-81
2023/03/04 08:41:44;;;;;;;10.50;2.80;;;4.90;99.90;;;3.17;100.00;101158.47;4972198;28;20038;-79
2023/03/04 08:44:10;;;;;;;6.23;2.73;;;4.90;99.90;;;3.24;100.00;101169.50;4975085;28;20049;-81
2023/03/04 08:46:38;;;;;;;7.93;2.95;;;4.90;99.90;;;3.23;100.00;101155.19;5001213;28;20504;-82
2023/03/04 08:49:05;;;;;;;9.55;2.85;;;4.90;99.90;;;3.39;100.00;101169.78;5001729;28;20556;-78
2023/03/04 08:51:31;;;;;;;7.78;2.67;;;5.00;99.90;;;3.27;100.00;101159.25;4979948;28;20446;-80
2023/03/04 08:53:57;;;;;;;6.75;2.92;;;5.00;99.90;;;3.24;100.00;101174.91;4986111;28;20062;-82
2023/03/04 08:56:23;;;;;;;8.23;2.80;;;4.90;99.90;;;3.10;100.00;101157.41;4985254;28;20085;-82
2023/03/04 08:58:49;;;;;;;9.32;2.92;;;4.80;99.90;;;3.17;100.00;101155.78;4973961;28;20035;-80
2023/03/04 09:01:15;;;;;;;6.78;3.03;;;4.90;99.90;;;3.19;100.00;101167.28;4992163;28;20088;-84
2023/03/04 09:03:41;;;;;;;9.15;3.42;;;4.90;99.90;;;3.11;100.00;101146.50;4985033;28;20049;-82
2023/03/04 09:06:10;;;;;;;6.90;3.38;;;4.90;99.90;;;3.27;100.00;101161.09;4987549;28;20039;-79
2023/03/04 09:08:36;;;;;;;9.02;3.47;;;4.90;99.90;;;3.31;100.00;101163.34;4982237;28;20504;-79
2023/03/04 09:11:02;;;;;;;8.27;3.33;;;4.90;99.90;;;3.45;100.00;101161.91;4989336;28;20712;-78
2023/03/04 09:13:29;;;;;;;8.45;3.13;;;5.00;99.90;;;3.48;100.00;101163.47;5006725;28;20035;-79
2023/03/04 09:15:55;;;;;;;9.32;3.90;;;5.10;99.90;;;3.46;100.00;101168.19;4976113;28;20144;-83
2023/03/04 09:18:23;;;;;;;10.30;3.70;;;5.10;99.90;;;3.48;100.00;101162.59;4981109;28;20054;-80
2023/03/04 09:20:49;;;;;;;14.55;6.68;;;5.20;99.90;;;3.40;100.00;101156.16;4980587;28;20042;-79
2023/03/04 09:23:17;;;;;;;17.35;6.80;;;5.10;99.90;;;3.41;100.00;101165.94;5005855;28;20451;-80
2023/03/04 09:25:45;;;;;;;16.25;7.30;;;5.10;99.90;;;3.34;100.00;101188.28;4981474;28;20201;-81
2023/03/04 09:28:12;;;;;;;20.48;9.30;;;5.00;99.90;;;3.32;100.00;101172.28;4984918;28;20034;-79
2023/03/04 09:30:38;;;;;;;19.45;9.93;;;5.00;99.90;;;3.31;100.00;101157.94;4987057;28;20045;-81
2023/03/04 09:33:03;;;;;;;19.65;8.38;;;5.00;99.90;;;3.45;100.00;101156.53;4977311;28;20038;-82
2023/03/04 09:35:29;;;;;;;19.70;7.43;;;5.20;99.90;;;3.81;100.00;101173.63;4981399;28;20042;-79
2023/03/04 09:37:56;;;;;;;13.80;6.78;;;5.40;99.90;;;3.86;100.00;101179.41;4974800;28;20039;-80
2023/03/04 09:40:29;;;;;;;15.07;7.28;;;5.50;99.90;;;4.15;100.00;101173.63;4991736;28;20440;-83
2023/03/04 09:43:02;;;;;;;16.02;6.20;;;5.80;99.90;;;4.37;100.00;101181.31;4982841;28;20056;-80
2023/03/04 09:45:48;;;;;;;10.98;4.70;;;6.00;99.90;;;4.12;100.00;101186.63;5004562;28;20039;-82
2023/03/04 09:48:21;;;;;;;9.13;3.85;;;5.90;99.90;;;4.05;100.00;101180.16;4976248;28;20043;-82
2023/03/04 09:51:20;;;;;;;14.23;3.55;;;5.80;99.90;;;4.02;100.00;101174.06;5003152;28;20125;-80
2023/03/04 09:54:12;;;;;;;13.40;3.40;;;5.80;99.90;;;3.98;100.00;101188.91;4969642;28;20061;-81
2023/03/04 09:56:40;;;;;;;39.50;18.75;;;5.70;99.90;;;3.98;100.00;101190.78;4991054;28;20169;-82
2023/03/04 09:59:28;;;;;;;14.38;4.30;;;5.70;99.90;;;4.06;100.00;101196.22;4982474;28;20151;-80
2023/03/04 10:02:12;;;;;;;19.05;7.47;;;5.70;99.90;;;4.03;100.00;101177.66;4975933;28;20050;-80
2023/03/04 10:04:51;;;;;;;19.33;8.55;;;5.80;99.90;;;3.95;100.00;101189.25;4984988;28;20045;-79
2023/03/04 10:07:28;;;;;;;18.67;7.05;;;5.70;99.90;;;3.91;100.00;101181.59;4989283;28;20144;-80
2023/03/04 10:10:12;;;;;;;20.90;7.88;;;5.60;99.90;;;3.97;100.00;101191.75;4986099;28;20439;-81
2023/03/04 10:12:45;;;;;;;110.43;63.53;;;5.70;99.90;;;4.05;100.00;101177.47;4993583;28;20034;-79
2023/03/04 10:15:36;;;;;;;44.38;22.17;;;5.70;99.90;;;4.13;100.00;101191.03;4985843;28;20031;-80
2023/03/04 10:18:44;;;;;;;49.55;27.05;;;5.80;99.90;;;4.23;100.00;101183.63;5003585;28;20048;-81